Fort Lauderdale Hollywood International Airport
KFLL : now visible

Airfield :











YOU CAN JOIN US ON...

 
LOGIN :

Register | Disclaimer

   EN    FR    IT 

 









Legend :    VFR   Marginal VFR   IFR   Intensive IFR   Very Intensive IFR
Visi :
Ceiling :
>= 8 km
>= 3000ft
5 to 8 km
1000 to 3000 ft
1500m to 5 km
500 to 1000 ft
800 to 1500m
200 to 500 ft
< 800m
< 200 ft
Symbols :   Thunderstorms  Fog  Heavy snow  Heavy precipitations  Wind > 20 kt






- Airport Elevation : 9 ft
- IATA code : FLL


KFLL - Fort Lauderdale Hollywood International

CURRENT METAR :
  • 210122Z 34007KT 3/4SM R10L/2200V3500FT +RA BR VV010 21/21 A3006 RMK AO2 P0159 T02110211 $

EXPIRED METARs :
  • 210105Z 30007KT 1/2SM R10L/2800V4500FT +RA FG BKN013 OVC019 22/22 A3006 RMK AO2 P0060 T02170217 $
  • 210053Z 32007KT 3/4SM R10L/3500V5000FT +RA BR OVC018 22/22 A3006 RMK AO2 SLP177 T02170217 PNO
  • 210044Z 31007KT 1SM R10L/5000VP6000FT +RA BR BKN018 BKN025 OVC050 22/22 A3005 RMK AO2 T02170217 PNO
  • 210030Z 36004KT 2SM +RA BR SCT022 BKN090 OVC120 22/22 A3004 RMK AO2 T02170217 PNO
  • 202353Z 03004KT 9SM -RA SCT025 SCT048 BKN070 22/22 A3004 RMK AO2 SLP173 6//// T02170217 10267 20217 51005 PNO
  • 202319Z 00000KT 6SM -RA BR FEW010 BKN030 OVC050 22/22 A3004 RMK AO2 T02220217 PNO
  • 202301Z 23003KT 4SM -RA BR FEW009 BKN017 OVC060 22/22 A3004 RMK AO2 T02220222 PNO
  • 202253Z VRB03KT 2SM RA BR SCT021 BKN060 OVC085 22/22 A3004 RMK AO2 SLP171 T02220217 PNO

TAF KFLL
Valid from the 21 at 01:00 until the 22 at 06:00 UTC


210108Z 2101/2206 VRB05KT 2SM RA BR BKN020
TEMPO 2101/2102 1SM +RA BR
FM210230 VRB03KT P6SM VCSH SCT020 BKN100
FM211300 VRB04KT P6SM SCT020 BKN035
FM211900 09006KT P6SM VCSH SCT020 BKN045
KZMA FIR / North America



MET'MAP, your aeronautical weather chart ! - Copyright ORBIFLY December 2007 - Disclaimer

ORBIFLY MET'MAP TEAM :

Programming & Development : Alexandra Zaïnal
Concept & original design : Baudouin d'Aumeries
Assistance for programming : Marc-Olivier Méhu
Technical & hardware support : Manuel Goepfert

Contact : metmap@orbifly.com




SOURCES & CREDITS :

   NOAA       Earth
Advisory